Time;durP1;ratioP1;P1;durP2;ratioP2;P2;SDS_P1;SDS_P2;PMS_P1;PMS_P2;Temp;Humidity;BMP_temperature;BMP_pressure;BME280_temperature;BME280_humidity;BME280_pressure;Samples;Min_cycle;Max_cycle;Signal;HPM_P1;HPM_P2
2021/09/15 00:01:13;;;;;;;14.90;12.27;;;17.50;99.90;;;;;;5050004;28;20104;-43
2021/09/15 00:03:38;;;;;;;12.95;11.65;;;17.50;99.90;;;;;;5049753;28;20044;-43
2021/09/15 00:06:04;;;;;;;11.75;10.45;;;17.50;99.90;;;;;;5049886;28;20173;-44
2021/09/15 00:08:30;;;;;;;11.63;10.43;;;17.50;99.90;;;;;;5049026;28;20029;-42
2021/09/15 00:10:56;;;;;;;12.18;10.93;;;17.50;99.90;;;;;;5049481;28;20023;-43
2021/09/15 00:13:22;;;;;;;13.73;10.90;;;17.50;99.90;;;;;;5049557;28;20417;-43
2021/09/15 00:15:48;;;;;;;16.20;11.63;;;17.50;99.90;;;;;;5048270;28;20032;-44
2021/09/15 00:18:13;;;;;;;12.70;11.38;;;17.50;99.90;;;;;;5048668;28;20029;-44
2021/09/15 00:20:39;;;;;;;12.75;11.02;;;17.50;99.90;;;;;;5049514;28;20360;-43
2021/09/15 00:23:05;;;;;;;12.73;11.32;;;17.50;99.90;;;;;;5049231;28;20059;-43
2021/09/15 00:25:31;;;;;;;12.23;11.00;;;17.50;99.90;;;;;;5049171;28;20440;-43
2021/09/15 00:27:57;;;;;;;13.05;11.45;;;17.40;99.90;;;;;;5048822;28;20493;-44
2021/09/15 00:30:22;;;;;;;12.18;10.88;;;17.40;99.90;;;;;;5049047;28;20071;-43
2021/09/15 00:32:48;;;;;;;13.90;11.48;;;17.40;99.90;;;;;;5049021;28;20052;-43
2021/09/15 00:35:13;;;;;;;12.25;10.98;;;17.40;99.90;;;;;;5049271;28;20028;-42
2021/09/15 00:37:39;;;;;;;13.23;10.63;;;17.40;99.90;;;;;;5048333;28;20528;-44
2021/09/15 00:40:07;;;;;;;12.95;11.55;;;17.40;99.90;;;;;;5049395;28;20530;-43
2021/09/15 00:42:32;;;;;;;13.88;11.07;;;17.40;99.90;;;;;;5048782;28;20155;-43
2021/09/15 00:44:58;;;;;;;12.93;11.52;;;17.40;99.90;;;;;;5047659;28;20472;-43
2021/09/15 00:47:23;;;;;;;13.43;11.43;;;17.40;99.90;;;;;;5048108;28;20029;-43
2021/09/15 00:49:49;;;;;;;17.63;11.85;;;17.30;99.90;;;;;;5048370;28;20053;-43
2021/09/15 00:52:15;;;;;;;14.55;11.32;;;17.30;99.90;;;;;;5047364;28;20553;-43
2021/09/15 00:54:40;;;;;;;15.20;11.35;;;17.30;99.90;;;;;;5048701;28;20400;-43
2021/09/15 00:57:06;;;;;;;14.70;11.48;;;17.30;99.90;;;;;;5048196;28;20021;-45
2021/09/15 00:59:31;;;;;;;13.52;11.52;;;17.30;99.90;;;;;;5048645;28;20028;-44
2021/09/15 01:01:57;;;;;;;13.35;11.85;;;17.30;99.90;;;;;;5048798;28;20540;-44
2021/09/15 01:04:22;;;;;;;11.80;10.60;;;17.30;99.90;;;;;;5048655;28;20483;-43
2021/09/15 01:06:48;;;;;;;12.75;10.43;;;17.30;99.90;;;;;;5047844;28;20032;-43
2021/09/15 01:09:14;;;;;;;14.73;11.18;;;17.30;99.90;;;;;;5048446;28;20028;-43
2021/09/15 01:11:41;;;;;;;15.65;11.52;;;17.30;99.90;;;;;;5048418;28;20039;-43
2021/09/15 01:14:06;;;;;;;14.13;10.85;;;17.30;99.90;;;;;;5048377;28;20082;-44
2021/09/15 01:16:54;;;;;;;13.38;11.98;;;17.30;99.90;;;;;;5046577;28;20120;-43
2021/09/15 01:19:24;;;;;;;12.30;11.00;;;17.30;99.90;;;;;;5048380;28;20028;-43
2021/09/15 01:21:56;;;;;;;13.15;11.75;;;17.20;99.90;;;;;;5048304;28;20175;-44
2021/09/15 01:24:24;;;;;;;14.07;11.38;;;17.20;99.90;;;;;;5048463;28;20021;-43
2021/09/15 01:26:51;;;;;;;13.27;11.73;;;17.20;99.90;;;;;;5047707;28;20013;-43
2021/09/15 01:29:19;;;;;;;16.13;11.68;;;17.20;99.90;;;;;;5048644;28;20017;-44
2021/09/15 01:32:24;;;;;;;13.07;11.70;;;17.20;99.90;;;;;;5048091;28;20406;-43
2021/09/15 01:34:52;;;;;;;15.80;12.63;;;17.20;99.90;;;;;;5045249;28;20041;-43
2021/09/15 01:37:17;;;;;;;13.32;12.02;;;17.10;99.90;;;;;;5044750;28;20033;-44
2021/09/15 01:39:43;;;;;;;13.40;11.98;;;17.10;99.90;;;;;;5047994;28;20118;-43
2021/09/15 01:42:09;;;;;;;14.57;12.25;;;17.10;99.90;;;;;;5046893;28;20147;-43
2021/09/15 01:44:40;;;;;;;14.25;11.70;;;17.10;99.90;;;;;;5048468;28;20032;-44
2021/09/15 01:47:08;;;;;;;15.90;12.80;;;17.10;99.90;;;;;;5047707;28;20028;-43
2021/09/15 01:49:36;;;;;;;13.02;11.43;;;17.10;99.90;;;;;;5048173;28;20206;-43
2021/09/15 01:52:03;;;;;;;14.88;12.93;;;17.10;99.90;;;;;;5048044;28;20029;-42
2021/09/15 01:54:28;;;;;;;15.88;12.93;;;17.10;99.90;;;;;;5048009;28;20082;-42
2021/09/15 01:56:54;;;;;;;15.75;13.30;;;17.10;99.90;;;;;;5047423;28;20029;-43
2021/09/15 01:59:20;;;;;;;15.48;13.40;;;17.10;99.90;;;;;;5048053;28;20017;-42
2021/09/15 02:01:45;;;;;;;13.32;11.93;;;17.10;99.90;;;;;;5050090;28;20057;-43
2021/09/15 02:04:11;;;;;;;14.32;12.82;;;17.10;99.90;;;;;;5051929;28;20057;-43
2021/09/15 02:06:37;;;;;;;13.75;12.35;;;17.10;99.90;;;;;;5051342;28;20033;-43
2021/09/15 02:09:03;;;;;;;14.70;12.60;;;17.10;99.90;;;;;;5051801;28;20036;-42
2021/09/15 02:11:30;;;;;;;18.10;13.98;;;17.10;99.90;;;;;;5051622;28;20032;-43
2021/09/15 02:13:56;;;;;;;13.32;10.80;;;17.10;99.90;;;;;;5033781;28;20478;-43
2021/09/15 02:16:21;;;;;;;16.38;13.05;;;17.00;99.90;;;;;;5051306;28;20036;-43
2021/09/15 02:18:47;;;;;;;14.65;13.00;;;17.10;99.90;;;;;;5051348;28;20021;-42
2021/09/15 02:21:13;;;;;;;15.07;12.50;;;17.00;99.90;;;;;;5051684;28;20502;-43
2021/09/15 02:23:39;;;;;;;16.17;13.38;;;17.00;99.90;;;;;;5051543;28;20064;-43
2021/09/15 02:26:05;;;;;;;15.10;12.32;;;17.00;99.90;;;;;;5051220;28;20037;-43
2021/09/15 02:28:30;;;;;;;17.33;13.70;;;17.00;99.90;;;;;;5051084;28;20024;-43
2021/09/15 02:30:56;;;;;;;15.85;12.85;;;17.00;99.90;;;;;;5051555;28;20069;-43
2021/09/15 02:33:22;;;;;;;15.23;13.52;;;17.00;99.90;;;;;;5051537;28;20099;-43
2021/09/15 02:35:47;;;;;;;15.00;13.38;;;17.00;99.90;;;;;;5051363;28;20265;-43
2021/09/15 02:38:13;;;;;;;14.77;13.27;;;17.00;99.90;;;;;;5049384;28;20025;-42
2021/09/15 02:40:39;;;;;;;14.45;12.95;;;17.00;99.90;;;;;;5051424;28;20028;-42
2021/09/15 02:43:04;;;;;;;14.88;13.20;;;17.00;99.90;;;;;;5051473;28;20032;-43
2021/09/15 02:45:30;;;;;;;15.77;13.32;;;17.00;99.90;;;;;;5049883;28;20035;-44
2021/09/15 02:47:55;;;;;;;15.88;13.68;;;17.00;99.90;;;;;;5050436;28;20025;-43
2021/09/15 02:50:21;;;;;;;16.73;14.63;;;17.00;99.90;;;;;;5051226;28;20029;-43
2021/09/15 02:52:46;;;;;;;17.98;14.55;;;17.00;99.90;;;;;;5051023;28;20025;-43
2021/09/15 02:55:12;;;;;;;15.63;14.00;;;17.00;99.90;;;;;;5050914;28;20029;-43
2021/09/15 02:57:37;;;;;;;14.52;12.73;;;17.00;99.90;;;;;;5050300;28;20127;-44
2021/09/15 03:00:04;;;;;;;15.30;13.27;;;17.00;99.90;;;;;;5050985;28;20115;-45
2021/09/15 03:02:30;;;;;;;15.07;13.48;;;16.90;99.90;;;;;;5050898;28;20032;-45
2021/09/15 03:04:56;;;;;;;18.00;14.63;;;16.90;99.90;;;;;;5050894;28;20025;-43
2021/09/15 03:07:21;;;;;;;16.85;14.73;;;16.90;99.90;;;;;;5048993;28;20025;-44
2021/09/15 03:09:47;;;;;;;18.55;14.80;;;16.90;99.90;;;;;;5049274;28;20025;-49
2021/09/15 03:12:12;;;;;;;19.90;14.27;;;17.00;99.90;;;;;;5046394;28;20060;-43
2021/09/15 03:14:38;;;;;;;18.50;15.52;;;16.90;99.90;;;;;;5037204;28;20037;-45
2021/09/15 03:17:03;;;;;;;16.50;14.80;;;16.90;99.90;;;;;;5036066;28;20017;-45
2021/09/15 03:19:29;;;;;;;18.52;14.35;;;17.00;99.90;;;;;;5040619;28;20040;-45
2021/09/15 03:21:54;;;;;;;17.73;14.98;;;17.00;99.90;;;;;;5030614;28;20364;-45
2021/09/15 03:24:20;;;;;;;16.27;14.43;;;16.90;99.90;;;;;;5030535;28;20029;-44
2021/09/15 03:26:45;;;;;;;15.48;13.88;;;17.00;99.90;;;;;;5030278;28;20383;-46
2021/09/15 03:29:11;;;;;;;15.45;13.80;;;16.90;99.90;;;;;;5030904;28;20052;-46
2021/09/15 03:31:36;;;;;;;17.48;15.15;;;16.90;99.90;;;;;;5029300;28;20025;-47
2021/09/15 03:34:03;;;;;;;19.38;14.48;;;17.00;99.90;;;;;;5030528;28;20025;-47
2021/09/15 03:36:28;;;;;;;18.70;14.57;;;17.00;99.90;;;;;;5028331;28;20327;-43
2021/09/15 03:38:54;;;;;;;17.48;15.18;;;17.00;99.90;;;;;;5028904;28;20057;-45
2021/09/15 03:41:19;;;;;;;17.40;13.73;;;16.90;99.90;;;;;;5030111;28;20398;-43
2021/09/15 03:43:45;;;;;;;18.30;16.27;;;16.90;99.90;;;;;;5028896;28;20041;-47
2021/09/15 03:46:10;;;;;;;18.77;15.52;;;16.90;99.90;;;;;;5028669;28;20121;-43
2021/09/15 03:48:36;;;;;;;18.35;15.05;;;16.90;99.90;;;;;;5029567;28;20489;-42
2021/09/15 03:51:02;;;;;;;21.30;16.58;;;16.90;99.90;;;;;;5029827;28;20040;-43
2021/09/15 03:53:27;;;;;;;21.10;17.17;;;16.90;99.90;;;;;;5029930;28;20422;-43
2021/09/15 03:55:53;;;;;;;20.77;17.35;;;16.90;99.90;;;;;;5030049;28;20021;-43
2021/09/15 03:58:18;;;;;;;20.20;16.52;;;16.90;99.90;;;;;;5029384;28;20030;-43
2021/09/15 04:00:44;;;;;;;17.88;15.52;;;16.90;99.90;;;;;;5029907;28;20116;-42
2021/09/15 04:03:09;;;;;;;20.13;16.83;;;16.80;99.90;;;;;;5029870;28;20350;-42
2021/09/15 04:05:35;;;;;;;21.33;17.45;;;16.80;99.90;;;;;;5030947;28;20104;-43
2021/09/15 04:08:00;;;;;;;21.95;17.55;;;16.80;99.90;;;;;;5030553;28;20605;-43
2021/09/15 04:10:26;;;;;;;20.33;15.90;;;16.80;99.90;;;;;;5030994;28;20037;-42
2021/09/15 04:12:51;;;;;;;21.80;17.50;;;16.70;99.90;;;;;;5031061;28;20240;-44
2021/09/15 04:15:17;;;;;;;22.08;18.58;;;16.70;99.90;;;;;;5029559;28;20026;-43
2021/09/15 04:17:43;;;;;;;21.85;18.25;;;16.70;99.90;;;;;;5029679;28;20108;-46
2021/09/15 04:20:08;;;;;;;27.13;19.52;;;16.70;99.90;;;;;;5030537;28;20029;-43
2021/09/15 04:22:36;;;;;;;21.80;17.98;;;16.70;99.90;;;;;;5030760;28;20070;-43
2021/09/15 04:33:15;;;;;;;22.00;17.85;;;16.80;99.90;;;;;;5029995;28;20136;-43
2021/09/15 04:35:40;;;;;;;23.17;18.83;;;16.80;99.90;;;;;;5030086;28;20092;-45
2021/09/15 04:38:06;;;;;;;26.25;20.15;;;16.80;99.90;;;;;;5029794;28;20367;-45
2021/09/15 04:40:31;;;;;;;24.33;19.42;;;16.80;99.90;;;;;;5030596;28;20029;-46
2021/09/15 04:42:57;;;;;;;23.30;18.58;;;16.80;99.90;;;;;;5030504;28;20033;-44
2021/09/15 04:45:22;;;;;;;22.75;19.55;;;16.80;99.90;;;;;;5030241;28;20080;-46
2021/09/15 04:47:48;;;;;;;22.35;19.25;;;16.80;99.90;;;;;;5029689;28;20372;-45
2021/09/15 04:50:14;;;;;;;22.90;19.30;;;16.80;99.90;;;;;;5028857;28;20067;-43
2021/09/15 04:52:39;;;;;;;23.73;19.33;;;16.80;99.90;;;;;;5028999;28;20022;-45
2021/09/15 04:55:05;;;;;;;25.08;20.08;;;16.80;99.90;;;;;;5030030;28;20105;-44
2021/09/15 04:57:31;;;;;;;22.10;19.63;;;16.80;99.90;;;;;;5029409;28;20021;-45
2021/09/15 04:59:56;;;;;;;23.10;18.85;;;16.70;99.90;;;;;;5030110;28;20030;-44
2021/09/15 05:02:22;;;;;;;21.30;19.02;;;16.80;99.90;;;;;;5030041;28;20109;-45
2021/09/15 05:04:47;;;;;;;21.73;18.67;;;16.80;99.90;;;;;;5030019;28;20029;-44
2021/09/15 05:07:13;;;;;;;19.95;17.77;;;16.80;99.90;;;;;;5028927;28;20021;-44
2021/09/15 05:09:39;;;;;;;20.02;17.88;;;16.80;99.90;;;;;;5029606;28;20079;-46
2021/09/15 05:12:05;;;;;;;21.02;17.90;;;16.90;99.90;;;;;;5033089;28;20017;-46
2021/09/15 05:14:30;;;;;;;20.38;17.58;;;16.90;99.90;;;;;;5042583;28;20025;-45
2021/09/15 05:16:55;;;;;;;22.10;18.50;;;16.90;99.90;;;;;;5048596;28;20072;-46
2021/09/15 05:19:21;;;;;;;21.17;18.25;;;16.90;99.90;;;;;;5049166;28;20028;-46
2021/09/15 05:21:46;;;;;;;20.50;17.83;;;16.90;99.90;;;;;;5048204;28;20119;-44
2021/09/15 05:24:12;;;;;;;20.90;17.90;;;16.90;99.90;;;;;;5047951;28;20036;-45
2021/09/15 05:26:37;;;;;;;19.98;17.95;;;16.90;99.90;;;;;;5047175;28;20021;-47
2021/09/15 05:29:04;;;;;;;19.92;16.83;;;16.90;99.90;;;;;;5049795;28;20032;-43
2021/09/15 05:31:29;;;;;;;21.65;18.05;;;16.90;99.90;;;;;;5049471;28;20414;-43
2021/09/15 05:33:55;;;;;;;23.05;19.40;;;16.90;99.90;;;;;;5049609;28;20044;-46
2021/09/15 05:36:21;;;;;;;23.60;18.95;;;16.90;99.90;;;;;;5052483;28;20398;-46
2021/09/15 05:38:47;;;;;;;21.17;18.02;;;17.00;99.90;;;;;;5055959;28;20021;-46
2021/09/15 05:41:12;;;;;;;24.15;19.45;;;17.00;99.90;;;;;;5054617;28;20021;-46
2021/09/15 05:43:38;;;;;;;24.02;19.55;;;16.90;99.90;;;;;;5055745;28;20474;-43
2021/09/15 05:46:04;;;;;;;21.73;19.40;;;17.00;99.90;;;;;;5054927;28;20036;-44
2021/09/15 05:48:29;;;;;;;22.15;19.00;;;17.00;99.90;;;;;;5055040;28;20033;-44
2021/09/15 05:50:55;;;;;;;22.15;18.98;;;17.00;99.90;;;;;;5055620;28;20033;-46
2021/09/15 05:53:20;;;;;;;22.30;19.75;;;17.00;99.90;;;;;;5055870;28;20021;-46
2021/09/15 05:55:45;;;;;;;21.80;19.42;;;17.00;99.90;;;;;;5055783;28;20063;-46
2021/09/15 05:58:11;;;;;;;29.50;19.08;;;17.00;99.90;;;;;;5055045;28;20024;-46
2021/09/15 06:00:37;;;;;;;23.38;19.20;;;17.10;99.90;;;;;;5055941;28;20079;-46
2021/09/15 06:03:02;;;;;;;19.77;17.67;;;17.10;99.90;;;;;;5055821;28;20047;-43
2021/09/15 06:05:28;;;;;;;22.60;18.58;;;17.10;99.90;;;;;;5055841;28;20056;-44
2021/09/15 06:07:53;;;;;;;25.08;19.98;;;17.10;99.90;;;;;;5053767;28;20083;-43
2021/09/15 06:10:19;;;;;;;20.33;18.05;;;17.20;99.90;;;;;;5055672;28;20425;-44
2021/09/15 06:12:44;;;;;;;21.50;18.40;;;17.20;99.90;;;;;;5053999;28;20033;-44
2021/09/15 06:15:10;;;;;;;22.92;18.35;;;17.30;99.90;;;;;;5054271;28;20032;-45
2021/09/15 06:17:36;;;;;;;19.88;16.50;;;17.30;99.90;;;;;;5055125;28;20447;-43
2021/09/15 06:20:02;;;;;;;21.15;18.15;;;17.40;99.90;;;;;;5054139;28;20155;-43
2021/09/15 06:22:27;;;;;;;21.08;17.98;;;17.40;99.90;;;;;;5054863;28;20155;-43
2021/09/15 06:24:54;;;;;;;20.98;17.00;;;17.50;99.90;;;;;;5055199;28;20052;-46
2021/09/15 06:27:24;;;;;;;20.83;17.30;;;17.60;99.90;;;;;;5055231;28;20589;-45
2021/09/15 06:29:49;;;;;;;22.92;18.40;;;17.60;99.90;;;;;;5055888;28;20029;-45
2021/09/15 06:32:18;;;;;;;21.00;16.98;;;17.70;99.90;;;;;;5055229;28;20032;-43
2021/09/15 06:34:44;;;;;;;19.25;16.92;;;17.70;99.90;;;;;;5055441;28;20025;-43
2021/09/15 06:37:10;;;;;;;18.23;16.20;;;17.80;99.90;;;;;;5055083;28;20108;-44
2021/09/15 06:39:35;;;;;;;21.77;17.95;;;17.90;99.90;;;;;;5054267;28;20624;-44
2021/09/15 06:42:01;;;;;;;17.98;15.95;;;17.90;99.90;;;;;;5055252;28;20495;-44
2021/09/15 06:44:26;;;;;;;20.73;17.02;;;18.00;99.90;;;;;;5054554;28;20025;-43
2021/09/15 06:46:52;;;;;;;18.17;16.27;;;18.00;99.90;;;;;;5053451;28;20021;-43
2021/09/15 06:49:17;;;;;;;18.25;16.05;;;18.10;99.90;;;;;;5051128;28;20036;-42
2021/09/15 06:51:43;;;;;;;17.70;15.50;;;18.10;99.90;;;;;;5051611;28;20459;-43
2021/09/15 06:54:09;;;;;;;20.30;16.33;;;18.20;99.90;;;;;;5051732;28;20029;-43
2021/09/15 06:56:34;;;;;;;19.23;16.10;;;18.30;99.90;;;;;;5050980;28;20494;-44
2021/09/15 06:59:00;;;;;;;17.70;15.75;;;18.50;99.90;;;;;;5050044;28;20024;-44
2021/09/15 07:01:28;;;;;;;16.65;14.93;;;18.60;99.90;;;;;;5051252;28;20040;-44
2021/09/15 07:03:53;;;;;;;18.83;16.00;;;18.80;99.90;;;;;;5051011;28;20036;-44
2021/09/15 07:06:19;;;;;;;17.27;14.27;;;19.10;99.90;;;;;;5049995;28;20246;-43
2021/09/15 07:08:44;;;;;;;17.52;14.25;;;19.20;99.90;;;;;;5050092;28;20075;-43
2021/09/15 07:11:10;;;;;;;17.08;14.65;;;19.40;99.90;;;;;;5050777;28;20057;-44
2021/09/15 07:13:35;;;;;;;18.65;14.70;;;19.50;99.90;;;;;;5051776;28;20083;-44
2021/09/15 07:16:01;;;;;;;16.05;13.55;;;19.50;99.90;;;;;;5051455;28;20716;-43
2021/09/15 07:18:27;;;;;;;15.63;13.35;;;19.60;99.90;;;;;;5050479;28;20032;-46
2021/09/15 07:20:53;;;;;;;19.08;14.75;;;19.70;99.90;;;;;;5051044;28;20094;-45
2021/09/15 07:23:18;;;;;;;19.05;14.10;;;19.70;99.90;;;;;;5051073;28;20029;-44
2021/09/15 07:25:44;;;;;;;18.27;14.77;;;19.70;99.90;;;;;;5051523;28;20393;-44
2021/09/15 07:28:09;;;;;;;15.25;13.27;;;19.80;99.90;;;;;;5050574;28;20029;-44
2021/09/15 07:30:35;;;;;;;18.23;13.25;;;19.80;99.90;;;;;;5051203;28;20029;-44
2021/09/15 07:33:00;;;;;;;16.20;13.15;;;20.00;99.90;;;;;;5051433;28;20114;-44
2021/09/15 07:35:26;;;;;;;16.55;14.30;;;20.10;99.90;;;;;;5051794;28;20017;-44
2021/09/15 07:37:51;;;;;;;16.10;12.60;;;20.10;99.90;;;;;;5050992;28;20441;-43
2021/09/15 07:40:17;;;;;;;15.07;12.75;;;20.20;99.90;;;;;;5051563;28;20025;-45
2021/09/15 07:42:43;;;;;;;17.67;13.15;;;20.30;99.90;;;;;;5051165;28;20064;-44
2021/09/15 07:45:12;;;;;;;17.23;11.95;;;20.30;99.90;;;;;;5051055;28;20035;-44
2021/09/15 07:47:38;;;;;;;13.25;11.85;;;20.50;99.90;;;;;;5049887;28;20021;-44
2021/09/15 07:50:04;;;;;;;14.20;12.70;;;20.50;99.90;;;;;;5049750;28;20063;-44
2021/09/15 07:52:29;;;;;;;15.70;13.00;;;20.60;99.90;;;;;;5050763;28;20091;-44
2021/09/15 07:54:55;;;;;;;13.45;12.15;;;20.60;99.90;;;;;;5050099;28;20025;-43
2021/09/15 07:57:20;;;;;;;19.63;13.05;;;20.60;99.90;;;;;;5049701;28;20050;-43
2021/09/15 07:59:46;;;;;;;13.07;11.70;;;20.60;99.90;;;;;;5051017;28;20017;-43
2021/09/15 08:02:12;;;;;;;15.38;12.75;;;20.70;99.90;;;;;;5050695;28;20047;-44
2021/09/15 08:04:37;;;;;;;18.77;13.80;;;20.60;99.90;;;;;;5051029;28;20025;-45
2021/09/15 08:07:03;;;;;;;13.65;12.18;;;20.70;99.90;;;;;;5050509;28;20043;-43
2021/09/15 08:09:28;;;;;;;17.33;13.43;;;20.70;99.90;;;;;;5050996;28;20025;-44
2021/09/15 08:11:54;;;;;;;14.93;12.68;;;20.80;99.90;;;;;;5050961;28;20033;-44
2021/09/15 08:14:19;;;;;;;16.63;12.07;;;20.90;99.90;;;;;;5050606;28;20025;-45
2021/09/15 08:16:45;;;;;;;13.90;12.00;;;21.00;99.90;;;;;;5050314;28;20051;-44
2021/09/15 08:19:10;;;;;;;20.35;13.00;;;21.20;99.90;;;;;;5050906;28;20132;-44
2021/09/15 08:21:36;;;;;;;14.25;12.10;;;21.40;99.90;;;;;;5049599;28;20742;-43
2021/09/15 08:24:01;;;;;;;13.13;11.52;;;21.60;99.90;;;;;;5050775;28;20025;-45
2021/09/15 08:26:27;;;;;;;14.82;11.68;;;21.80;99.90;;;;;;5047234;28;20627;-44
2021/09/15 08:28:53;;;;;;;15.98;12.00;;;22.10;99.90;;;;;;5049612;28;20029;-46
2021/09/15 08:31:18;;;;;;;15.68;12.27;;;22.10;99.90;;;;;;5050861;28;20086;-44
2021/09/15 08:33:43;;;;;;;16.40;11.82;;;22.20;99.90;;;;;;5050611;28;20025;-44
2021/09/15 08:36:09;;;;;;;17.27;12.05;;;22.10;99.90;;;;;;5050896;28;20025;-44
2021/09/15 08:38:34;;;;;;;16.42;11.98;;;22.10;99.90;;;;;;5042059;28;20057;-46
2021/09/15 08:41:00;;;;;;;15.30;12.25;;;22.10;99.90;;;;;;5039798;28;20036;-43
2021/09/15 08:43:26;;;;;;;15.07;12.05;;;22.10;99.90;;;;;;5038667;28;20029;-44
2021/09/15 08:45:54;;;;;;;12.32;11.02;;;22.10;99.90;;;;;;5040158;28;20024;-45
2021/09/15 08:48:21;;;;;;;16.52;10.75;;;22.00;99.90;;;;;;5038832;28;20053;-44
2021/09/15 08:50:51;;;;;;;16.10;11.10;;;22.10;99.90;;;;;;5039517;28;20056;-44
2021/09/15 08:53:18;;;;;;;12.38;11.02;;;22.10;99.90;;;;;;5039679;28;20017;-44
2021/09/15 08:55:47;;;;;;;15.15;11.27;;;22.30;99.90;;;;;;5040933;28;20096;-44
2021/09/15 08:58:16;;;;;;;13.38;11.77;;;22.20;99.90;;;;;;5039391;28;20180;-44
2021/09/15 09:00:43;;;;;;;14.23;10.98;;;22.30;99.90;;;;;;5041126;28;20108;-43
2021/09/15 09:03:09;;;;;;;12.05;10.45;;;22.30;99.90;;;;;;5039048;28;20029;-44
2021/09/15 09:05:35;;;;;;;18.67;11.55;;;22.30;99.90;;;;;;5039478;28;20025;-44
2021/09/15 09:08:01;;;;;;;14.88;12.00;;;22.30;99.90;;;;;;5039751;28;20135;-43
2021/09/15 09:10:33;;;;;;;17.48;12.38;;;22.20;99.90;;;;;;5037165;28;20052;-45
2021/09/15 09:12:59;;;;;;;15.38;12.35;;;22.10;99.90;;;;;;5037468;28;20490;-44
2021/09/15 09:15:26;;;;;;;13.88;11.20;;;22.10;99.90;;;;;;5041531;28;20024;-44
2021/09/15 09:17:56;;;;;;;13.25;11.38;;;22.00;99.90;;;;;;5038333;28;20586;-44
2021/09/15 09:20:23;;;;;;;12.10;10.90;;;22.00;99.90;;;;;;5039752;28;20029;-45
2021/09/15 09:22:56;;;;;;;15.10;11.15;;;22.00;99.90;;;;;;5037791;28;20487;-46
2021/09/15 09:25:21;;;;;;;15.50;11.50;;;22.00;99.90;;;;;;5038448;28;20108;-47
2021/09/15 09:27:47;;;;;;;13.23;11.70;;;22.00;99.90;;;;;;5037921;28;20484;-46
2021/09/15 09:30:36;;;;;;;13.57;11.27;;;22.00;99.90;;;;;;5038186;28;20048;-44
2021/09/15 09:33:06;;;;;;;14.55;13.00;;;22.00;99.90;;;;;;5039749;28;20052;-44
2021/09/15 09:35:43;;;;;;;;;;;21.90;99.90;;;;;;5038885;28;20033;-45
2021/09/15 09:38:19;;;;;;;15.27;12.93;;;21.90;99.90;;;;;;5048807;28;19905;-44
2021/09/15 09:40:59;;;;;;;15.30;12.63;;;21.90;99.90;;;;;;5048372;28;20628;-44
2021/09/15 09:43:25;;;;;;;49.45;34.55;;;21.90;99.90;;;;;;5049648;28;20017;-44
2021/09/15 09:45:51;;;;;;;49.78;36.47;;;22.00;99.90;;;;;;5049627;28;20049;-46
2021/09/15 09:48:35;;;;;;;21.85;15.98;;;22.20;99.90;;;;;;5049110;28;20067;-44
2021/09/15 09:51:04;;;;;;;17.17;12.23;;;22.40;99.90;;;;;;5049705;28;20469;-46
2021/09/15 09:53:29;;;;;;;16.88;13.50;;;22.60;99.90;;;;;;5044554;28;20056;-44
2021/09/15 09:55:57;;;;;;;16.90;12.13;;;22.80;99.90;;;;;;5037763;28;20456;-44
2021/09/15 09:58:25;;;;;;;12.52;11.23;;;22.90;99.90;;;;;;5037915;28;20049;-44
2021/09/15 10:00:58;;;;;;;16.17;11.70;;;22.90;99.90;;;;;;5041083;28;20033;-47
2021/09/15 10:03:24;;;;;;;16.80;11.30;;;22.90;99.90;;;;;;5048337;28;20031;-48
2021/09/15 10:05:50;;;;;;;12.00;10.60;;;22.90;99.90;;;;;;5048212;28;20025;-49
2021/09/15 10:08:21;;;;;;;13.10;11.75;;;22.80;99.90;;;;;;5043808;28;20094;-48
2021/09/15 10:10:50;;;;;;;14.02;10.95;;;22.90;99.90;;;;;;5028475;28;20026;-48
2021/09/15 10:13:17;;;;;;;12.15;10.85;;;23.00;99.90;;;;;;5033105;28;20033;-48
2021/09/15 10:15:45;;;;;;;11.75;10.35;;;23.20;99.90;;;;;;5047377;28;20013;-47
2021/09/15 10:18:12;;;;;;;12.18;10.32;;;23.30;99.90;;;;;;5045678;28;20041;-49
2021/09/15 10:20:42;;;;;;;14.40;10.93;;;23.40;99.90;;;;;;5041868;28;20033;-48
2021/09/15 10:23:40;;;;;;;12.15;10.05;;;23.50;99.90;;;;;;5047613;28;20028;-48
2021/09/15 10:26:24;;;;;;;13.68;10.15;;;23.40;99.90;;;;;;5051488;28;20491;-48
2021/09/15 10:29:28;;;;;;;11.57;10.38;;;23.40;99.90;;;;;;5051274;28;20061;-48
2021/09/15 10:32:01;;;;;;;10.98;9.82;;;23.50;99.90;;;;;;5042299;28;20112;-48
2021/09/15 10:34:36;;;;;;;11.60;9.90;;;23.60;99.90;;;;;;5040184;28;20105;-48
2021/09/15 10:37:02;;;;;;;12.85;10.77;;;23.60;99.90;;;;;;5040654;28;20164;-48
2021/09/15 10:39:28;;;;;;;11.05;9.90;;;23.50;99.90;;;;;;5040659;28;20471;-49
2021/09/15 10:41:54;;;;;;;11.20;10.13;;;23.50;99.90;;;;;;5041629;28;20102;-48
2021/09/15 10:44:21;;;;;;;11.82;10.20;;;23.60;99.90;;;;;;5046425;28;20499;-48
2021/09/15 10:46:47;;;;;;;13.77;10.52;;;23.80;99.90;;;;;;5050546;28;20075;-48
2021/09/15 10:49:18;;;;;;;12.35;10.35;;;23.90;99.90;;;;;;5051294;28;20430;-48
2021/09/15 10:51:45;;;;;;;11.57;10.38;;;23.90;99.90;;;;;;5051166;28;20025;-48
2021/09/15 10:54:38;;;;;;;10.15;9.05;;;24.10;99.90;;;;;;5051283;28;20116;-48
2021/09/15 10:57:18;;;;;;;11.38;10.18;;;24.30;99.90;;;;;;5050487;28;20082;-48
2021/09/15 10:59:51;;;;;;;12.05;10.32;;;24.40;99.90;;;;;;5050767;28;20029;-48
2021/09/15 11:02:35;;;;;;;10.98;9.70;;;24.50;99.90;;;;;;5051125;28;20364;-48
2021/09/15 11:05:26;;;;;;;14.15;11.80;;;24.60;99.90;;;;;;5050948;28;20029;-48
2021/09/15 11:07:51;;;;;;;14.43;10.68;;;24.70;99.90;;;;;;5050355;28;20025;-48
2021/09/15 11:10:35;;;;;;;12.35;11.13;;;24.70;99.90;;;;;;5050438;28;20039;-48
2021/09/15 11:13:29;;;;;;;23.83;12.25;;;24.80;99.90;;;;;;5046828;28;20478;-48
2021/09/15 11:15:54;;;;;;;13.88;11.85;;;24.90;99.90;;;;;;5050276;28;20376;-48
2021/09/15 11:18:27;;;;;;;15.57;13.23;;;24.90;99.90;;;;;;5049937;28;20031;-50
2021/09/15 11:21:04;;;;;;;17.23;13.02;;;24.80;99.90;;;;;;5049311;28;20032;-49
2021/09/15 11:23:30;;;;;;;14.18;11.32;;;24.70;99.90;;;;;;5050757;28;20041;-50
2021/09/15 11:25:57;;;;;;;10.73;9.73;;;24.60;99.90;;;;;;5050685;28;20040;-48
2021/09/15 11:28:24;;;;;;;12.52;9.98;;;24.60;99.90;;;;;;5038314;28;20033;-48
2021/09/15 11:30:49;;;;;;;11.05;9.93;;;24.60;99.90;;;;;;5038758;28;20029;-48
2021/09/15 11:33:35;;;;;;;12.18;9.68;;;24.50;99.90;;;;;;5038404;28;20029;-48
2021/09/15 11:36:11;;;;;;;12.82;9.80;;;24.50;99.90;;;;;;5015806;28;20407;-48
2021/09/15 11:38:42;;;;;;;13.55;9.55;;;24.50;99.90;;;;;;5019398;28;20036;-48
2021/09/15 11:41:10;;;;;;;11.38;9.65;;;24.50;99.90;;;;;;5019752;28;20044;-48
2021/09/15 11:43:37;;;;;;;13.75;10.48;;;24.40;99.90;;;;;;5038564;28;20023;-50
2021/09/15 11:46:02;;;;;;;10.80;9.70;;;24.30;99.90;;;;;;5051770;28;20060;-51
2021/09/15 11:48:30;;;;;;;10.55;9.50;;;24.30;99.90;;;;;;5045240;28;20601;-50
2021/09/15 11:50:56;;;;;;;11.98;10.10;;;24.20;99.90;;;;;;5051615;28;20037;-50
2021/09/15 11:53:24;;;;;;;11.23;9.00;;;24.10;99.90;;;;;;5050217;28;20057;-49
2021/09/15 11:55:59;;;;;;;11.10;10.00;;;24.10;99.90;;;;;;5051264;28;20026;-48
2021/09/15 11:58:25;;;;;;;15.57;11.45;;;24.10;99.90;;;;;;5050769;28;20029;-48
2021/09/15 12:00:52;;;;;;;14.98;10.52;;;24.10;99.90;;;;;;5051229;28;20029;-50
2021/09/15 12:03:25;;;;;;;14.05;11.05;;;24.10;99.90;;;;;;5051040;28;20029;-47
2021/09/15 12:05:52;;;;;;;13.93;11.45;;;24.00;99.90;;;;;;5050027;28;20041;-48
2021/09/15 12:08:17;;;;;;;12.38;10.60;;;23.90;99.90;;;;;;5050708;28;20078;-48
2021/09/15 12:10:43;;;;;;;12.10;10.55;;;23.80;99.90;;;;;;5051047;28;20025;-51
2021/09/15 12:13:08;;;;;;;11.90;10.63;;;23.70;99.90;;;;;;5051167;28;20040;-51
2021/09/15 12:15:50;;;;;;;16.35;11.60;;;23.60;99.90;;;;;;5049698;28;20115;-48
2021/09/15 12:18:21;;;;;;;14.13;11.57;;;23.50;99.90;;;;;;5050565;28;20119;-50
2021/09/15 12:20:50;;;;;;;17.33;12.48;;;23.40;99.90;;;;;;5051131;28;20417;-51
2021/09/15 12:23:19;;;;;;;14.95;12.10;;;23.20;99.90;;;;;;5050872;28;20048;-49
2021/09/15 12:25:56;;;;;;;17.30;13.43;;;23.00;99.90;;;;;;5050541;28;20033;-48
2021/09/15 12:28:28;;;;;;;15.40;13.80;;;22.90;99.90;;;;;;5050165;28;20024;-53
2021/09/15 12:30:55;;;;;;;18.35;14.95;;;22.70;99.90;;;;;;5041820;28;20080;-49
2021/09/15 12:33:26;;;;;;;16.38;14.55;;;22.60;99.90;;;;;;5045007;28;20109;-48
2021/09/15 12:36:19;;;;;;;16.52;14.38;;;22.50;99.90;;;;;;5050111;28;20514;-48
2021/09/15 12:38:56;;;;;;;18.75;14.10;;;22.40;99.90;;;;;;5048879;28;20037;-48